createdAt,value
2023-05-10T00:00:54.736Z,91.84
2023-05-10T00:04:07.564Z,92.76
2023-05-10T00:07:19.950Z,93.15
2023-05-10T00:10:32.625Z,94.20
2023-05-10T00:13:44.982Z,94.61
2023-05-10T00:16:58.270Z,94.40
2023-05-10T00:20:11.483Z,93.66
2023-05-10T00:23:24.128Z,93.90
2023-05-10T00:26:38.063Z,93.43
2023-05-10T00:29:50.793Z,93.46
2023-05-10T00:33:04.014Z,93.76
2023-05-10T00:36:16.802Z,93.71
2023-05-10T00:39:29.646Z,93.95
2023-05-10T00:42:42.306Z,93.86
2023-05-10T00:45:54.918Z,93.94
2023-05-10T00:49:07.604Z,93.47
2023-05-10T00:52:20.203Z,92.25
2023-05-10T00:55:33.164Z,91.44
2023-05-10T00:58:45.537Z,89.42
2023-05-10T01:01:58.746Z,88.02
2023-05-10T01:05:11.176Z,85.89
2023-05-10T01:08:23.904Z,85.45
2023-05-10T01:11:36.614Z,85.13
2023-05-10T01:14:49.264Z,85.55
2023-05-10T01:18:02.004Z,85.73
2023-05-10T01:21:39.991Z,85.48
2023-05-10T01:25:20.303Z,85.54
2023-05-10T01:29:07.079Z,84.81
2023-05-10T01:32:41.246Z,85.04
2023-05-10T01:36:07.950Z,84.59
2023-05-10T01:39:30.804Z,82.51
2023-05-10T01:42:52.218Z,82.86
2023-05-10T01:46:11.561Z,82.13
2023-05-10T01:49:28.232Z,81.60
2023-05-10T01:52:44.849Z,80.95
2023-05-10T01:55:58.324Z,79.87
2023-05-10T01:59:14.187Z,79.50
2023-05-10T02:02:27.598Z,80.09
2023-05-10T02:05:40.319Z,81.83
2023-05-10T02:08:52.690Z,83.41
2023-05-10T02:12:05.844Z,85.95
2023-05-10T02:15:22.022Z,86.62
2023-05-10T02:18:35.224Z,87.14
2023-05-10T02:21:47.580Z,88.81
2023-05-10T02:25:00.916Z,89.06
2023-05-10T02:28:14.054Z,89.20
2023-05-10T02:31:26.753Z,90.15
2023-05-10T02:34:39.357Z,90.67
2023-05-10T02:37:52.474Z,90.47
2023-05-10T02:41:05.237Z,90.12
2023-05-10T02:44:19.656Z,89.93
2023-05-10T02:47:32.547Z,89.94
2023-05-10T02:50:45.953Z,90.56
2023-05-10T02:53:58.371Z,89.81
2023-05-10T02:57:12.093Z,89.92
2023-05-10T03:00:25.735Z,90.85
2023-05-10T03:03:38.364Z,91.03
2023-05-10T03:06:50.899Z,90.73
2023-05-10T03:10:04.001Z,90.23
2023-05-10T03:13:28.684Z,89.76
2023-05-10T03:16:48.168Z,90.69
2023-05-10T03:20:05.314Z,89.92
2023-05-10T03:23:22.207Z,88.26
2023-05-10T03:26:34.785Z,88.51
2023-05-10T03:29:47.917Z,87.67
2023-05-10T03:33:06.473Z,87.71
2023-05-10T03:36:20.281Z,88.00
2023-05-10T03:39:33.112Z,87.84
2023-05-10T03:42:46.530Z,84.79
2023-05-10T03:45:58.914Z,85.81
2023-05-10T03:49:11.606Z,86.37
2023-05-10T03:52:23.971Z,85.52
2023-05-10T03:55:37.448Z,85.34
2023-05-10T03:58:49.996Z,84.45
2023-05-10T04:02:03.847Z,85.73
2023-05-10T04:05:16.679Z,86.31
2023-05-10T04:08:29.877Z,86.19
2023-05-10T04:11:42.906Z,86.98
2023-05-10T04:14:55.256Z,85.44
2023-05-10T04:18:08.880Z,86.57
2023-05-10T04:21:21.401Z,83.29
2023-05-10T04:24:33.997Z,84.92
2023-05-10T04:27:46.381Z,84.72
2023-05-10T04:31:08.794Z,82.91
2023-05-10T04:34:22.146Z,83.12
2023-05-10T04:37:34.752Z,82.60
2023-05-10T04:40:47.321Z,83.09
2023-05-10T04:43:59.947Z,83.00
2023-05-10T04:47:14.182Z,83.16
2023-05-10T04:50:26.961Z,84.24
2023-05-10T04:53:39.438Z,85.54
2023-05-10T04:56:52.291Z,85.22
2023-05-10T05:00:05.392Z,85.25
2023-05-10T05:03:18.109Z,85.23
2023-05-10T05:06:30.769Z,87.87
2023-05-10T05:09:43.484Z,86.02
2023-05-10T05:12:55.856Z,85.52
2023-05-10T05:16:08.547Z,85.69
2023-05-10T05:19:22.574Z,85.98
2023-05-10T05:22:36.524Z,87.33
2023-05-10T05:25:48.895Z,87.28
2023-05-10T05:29:01.584Z,88.55
2023-05-10T05:32:14.949Z,87.94
2023-05-10T05:35:27.703Z,87.77
2023-05-10T05:38:40.119Z,87.47
2023-05-10T05:41:52.794Z,88.43
2023-05-10T05:45:05.528Z,88.23
2023-05-10T05:48:18.344Z,87.23
2023-05-10T05:51:30.693Z,85.99
2023-05-10T05:54:43.404Z,85.22
2023-05-10T05:57:55.813Z,85.47
2023-05-10T06:01:08.702Z,84.62
2023-05-10T06:04:21.459Z,83.28
2023-05-10T06:07:34.888Z,81.90
2023-05-10T06:10:47.633Z,82.51
2023-05-10T06:14:00.431Z,82.84
2023-05-10T06:17:13.262Z,83.42
2023-05-10T06:20:25.674Z,82.16
2023-05-10T06:23:38.280Z,81.14
2023-05-10T06:26:51.527Z,81.13
2023-05-10T06:30:12.931Z,81.10
2023-05-10T06:33:26.052Z,79.14
2023-05-10T06:36:38.762Z,78.19
2023-05-10T06:39:51.100Z,77.04
2023-05-10T06:43:03.816Z,78.61
2023-05-10T06:46:16.449Z,75.84
2023-05-10T06:49:29.136Z,76.48
2023-05-10T06:52:41.557Z,76.39
2023-05-10T06:55:54.196Z,73.67
2023-05-10T06:59:07.833Z,73.09
2023-05-10T07:02:20.586Z,72.66
2023-05-10T07:05:33.155Z,70.23
2023-05-10T07:08:47.081Z,70.23
2023-05-10T07:11:59.463Z,68.04
2023-05-10T07:15:12.074Z,68.13
2023-05-10T07:18:24.486Z,65.14
2023-05-10T07:21:37.582Z,66.09
2023-05-10T07:24:51.406Z,67.86
2023-05-10T07:28:06.628Z,65.85
2023-05-10T07:31:19.237Z,67.56
2023-05-10T07:34:32.776Z,68.11
2023-05-10T07:37:45.173Z,67.44
2023-05-10T07:40:57.848Z,67.06
2023-05-10T07:44:10.253Z,64.33
2023-05-10T07:47:23.014Z,65.11
2023-05-10T07:50:35.495Z,65.93
2023-05-10T07:53:48.217Z,64.16
2023-05-10T07:57:01.273Z,63.39
2023-05-10T08:00:14.724Z,63.89
2023-05-10T08:03:27.649Z,63.56
2023-05-10T08:06:40.690Z,64.46
2023-05-10T08:09:54.583Z,62.93
2023-05-10T08:13:08.203Z,62.28
2023-05-10T08:16:21.173Z,62.06
2023-05-10T08:19:33.603Z,60.43
2023-05-10T08:22:47.017Z,61.08
2023-05-10T08:25:59.730Z,61.06
2023-05-10T08:29:12.388Z,60.74
2023-05-10T08:32:24.855Z,58.79
2023-05-10T08:35:37.640Z,57.79
2023-05-10T08:38:52.204Z,58.45
2023-05-10T08:42:05.587Z,59.93
2023-05-10T08:45:18.089Z,58.05
2023-05-10T08:48:32.062Z,57.17
2023-05-10T08:51:46.615Z,56.49
2023-05-10T08:54:59.243Z,56.02
2023-05-10T08:58:11.769Z,56.12
2023-05-10T09:01:24.639Z,56.36
2023-05-10T09:04:37.308Z,55.33
2023-05-10T09:07:50.135Z,55.82
2023-05-10T09:11:02.696Z,55.24
2023-05-10T09:14:15.833Z,53.09
2023-05-10T09:17:28.294Z,53.19
2023-05-10T09:20:41.525Z,53.31
2023-05-10T09:23:55.383Z,53.08
2023-05-10T09:27:08.254Z,51.73
2023-05-10T09:30:27.974Z,52.42
2023-05-10T09:33:49.675Z,52.14
2023-05-10T09:37:03.937Z,49.96
2023-05-10T09:40:20.908Z,49.82
2023-05-10T09:43:38.996Z,50.39
2023-05-10T09:46:53.727Z,51.28
2023-05-10T09:50:07.393Z,50.22
2023-05-10T09:53:20.139Z,50.78
2023-05-10T09:56:36.960Z,52.32
2023-05-10T09:59:51.005Z,49.44
2023-05-10T10:03:04.360Z,51.21
2023-05-10T10:06:29.473Z,50.22
2023-05-10T10:09:42.919Z,48.94
2023-05-10T10:12:56.096Z,49.15
2023-05-10T10:16:09.424Z,47.47
2023-05-10T10:19:22.326Z,47.28
2023-05-10T10:22:35.144Z,46.57
2023-05-10T10:25:49.957Z,46.27
2023-05-10T10:29:17.938Z,44.65
2023-05-10T10:32:58.365Z,44.20
2023-05-10T10:36:11.633Z,44.56
2023-05-10T10:39:26.356Z,43.90
2023-05-10T10:42:47.209Z,43.00
2023-05-10T10:46:16.367Z,41.46
2023-05-10T10:49:28.856Z,43.16
2023-05-10T10:52:42.285Z,42.80
2023-05-10T10:56:06.540Z,41.58
2023-05-10T10:59:28.300Z,42.11
2023-05-10T11:02:49.176Z,40.94
2023-05-10T11:06:02.823Z,41.00
2023-05-10T11:09:15.661Z,40.58
2023-05-10T11:12:28.318Z,39.88
2023-05-10T11:15:40.814Z,40.24
2023-05-10T11:19:14.322Z,40.57
2023-05-10T11:22:26.843Z,41.39
2023-05-10T11:25:45.181Z,41.93
2023-05-10T11:28:57.584Z,41.36
2023-05-10T11:32:10.276Z,41.38
2023-05-10T11:35:22.633Z,42.17
2023-05-10T11:38:35.349Z,42.23
2023-05-10T11:41:49.746Z,40.76
2023-05-10T11:45:02.346Z,40.50
2023-05-10T11:48:14.976Z,39.66
2023-05-10T11:51:27.693Z,40.70
2023-05-10T11:54:52.025Z,40.19
2023-05-10T11:58:04.925Z,41.79
2023-05-10T12:01:17.336Z,41.10
2023-05-10T12:04:30.660Z,41.39
2023-05-10T12:07:43.201Z,42.31
2023-05-10T12:11:05.992Z,42.37
2023-05-10T12:14:20.561Z,41.54
2023-05-10T12:17:33.292Z,40.48
2023-05-10T12:20:45.655Z,38.52
2023-05-10T12:24:03.240Z,40.01
2023-05-10T12:27:15.810Z,37.85
2023-05-10T12:30:31.050Z,38.64
2023-05-10T12:33:44.238Z,37.20
2023-05-10T12:36:56.905Z,37.65
2023-05-10T12:40:10.420Z,37.91
2023-05-10T12:43:23.130Z,38.63
2023-05-10T12:46:35.582Z,39.42
2023-05-10T12:49:48.265Z,36.85
2023-05-10T12:53:00.620Z,37.39
2023-05-10T12:56:13.431Z,38.17
2023-05-10T12:59:26.830Z,37.49
2023-05-10T13:02:39.474Z,37.99
2023-05-10T13:05:51.886Z,38.12
2023-05-10T13:09:04.612Z,35.12
2023-05-10T13:12:17.013Z,36.60
2023-05-10T13:15:29.721Z,38.78
2023-05-10T13:18:42.097Z,38.52
2023-05-10T13:21:54.790Z,36.49
2023-05-10T13:25:07.688Z,35.63
2023-05-10T13:28:20.511Z,34.84
2023-05-10T13:31:32.904Z,33.47
2023-05-10T13:34:45.744Z,32.91
2023-05-10T13:37:58.706Z,33.92
2023-05-10T13:41:11.589Z,33.99
2023-05-10T13:44:24.603Z,31.96
2023-05-10T13:47:37.431Z,32.39
2023-05-10T13:50:49.812Z,32.98
2023-05-10T13:54:05.963Z,30.95
2023-05-10T13:57:18.438Z,32.67
2023-05-10T14:00:31.629Z,32.77
2023-05-10T14:03:44.426Z,31.33
2023-05-10T14:06:56.886Z,30.70
2023-05-10T14:10:09.814Z,31.34
2023-05-10T14:13:22.297Z,32.48
2023-05-10T14:16:34.977Z,32.07
2023-05-10T14:19:47.685Z,32.95
2023-05-10T14:23:01.027Z,33.17
2023-05-10T14:26:13.420Z,32.30
2023-05-10T14:29:26.182Z,31.45
2023-05-10T14:32:38.746Z,31.70
2023-05-10T14:35:51.619Z,31.01
2023-05-10T14:39:04.047Z,31.90
2023-05-10T14:42:16.637Z,31.15
2023-05-10T14:45:29.072Z,31.67
2023-05-10T14:48:41.755Z,29.69
2023-05-10T14:51:54.207Z,30.92
2023-05-10T14:55:07.536Z,29.65
2023-05-10T14:58:19.907Z,30.05
2023-05-10T15:01:34.052Z,31.32
2023-05-10T15:04:46.913Z,32.59
2023-05-10T15:07:59.974Z,32.97
2023-05-10T15:11:12.373Z,32.96
2023-05-10T15:14:25.114Z,34.82
2023-05-10T15:17:37.663Z,33.75
2023-05-10T15:20:50.361Z,34.15
2023-05-10T15:24:02.776Z,34.73
2023-05-10T15:27:15.446Z,33.33
2023-05-10T15:30:27.834Z,32.22
2023-05-10T15:33:40.498Z,31.49
2023-05-10T15:36:52.893Z,30.12
2023-05-10T15:40:06.172Z,29.85
2023-05-10T15:43:18.595Z,29.42
2023-05-10T15:46:31.372Z,29.62
2023-05-10T15:49:43.866Z,28.67
2023-05-10T15:52:56.514Z,29.40
2023-05-10T15:56:08.869Z,29.54
2023-05-10T15:59:21.513Z,29.23
2023-05-10T16:02:34.092Z,28.81
2023-05-10T16:05:46.977Z,28.67
2023-05-10T16:08:59.394Z,31.05
2023-05-10T16:12:12.094Z,32.94
2023-05-10T16:15:24.480Z,34.24
2023-05-10T16:18:37.328Z,34.70
2023-05-10T16:21:50.043Z,35.31
2023-05-10T16:25:02.734Z,35.46
2023-05-10T16:28:15.127Z,36.02
2023-05-10T16:31:27.908Z,35.98
2023-05-10T16:34:40.419Z,36.61
2023-05-10T16:37:53.175Z,36.93
2023-05-10T16:41:06.735Z,37.57
2023-05-10T16:44:20.815Z,38.46
2023-05-10T16:47:34.228Z,38.94
2023-05-10T16:50:47.883Z,39.25
2023-05-10T16:54:00.334Z,38.74
2023-05-10T16:57:12.990Z,38.83
2023-05-10T17:00:26.004Z,38.20
2023-05-10T17:03:39.012Z,38.06
2023-05-10T17:06:51.760Z,38.48
2023-05-10T17:10:04.621Z,38.42
2023-05-10T17:13:17.358Z,39.40
2023-05-10T17:16:30.111Z,39.33
2023-05-10T17:19:45.411Z,39.84
2023-05-10T17:22:58.158Z,39.84
2023-05-10T17:26:10.562Z,40.83
2023-05-10T17:29:23.614Z,41.12
2023-05-10T17:32:36.168Z,41.57
2023-05-10T17:35:49.041Z,41.39
2023-05-10T17:39:01.366Z,42.29
2023-05-10T17:42:17.470Z,43.42
2023-05-10T17:45:30.525Z,43.85
2023-05-10T17:48:43.527Z,44.50
2023-05-10T17:51:55.924Z,44.80
2023-05-10T17:55:08.849Z,45.20
2023-05-10T17:58:21.211Z,45.53
2023-05-10T18:01:34.768Z,46.02
2023-05-10T18:04:49.443Z,46.04
2023-05-10T18:08:01.963Z,46.38
2023-05-10T18:11:14.574Z,46.71
2023-05-10T18:14:39.793Z,47.07
2023-05-10T18:17:53.538Z,47.63
2023-05-10T18:21:05.955Z,48.08
2023-05-10T18:24:37.066Z,48.90
2023-05-10T18:27:52.053Z,49.27
2023-05-10T18:31:04.712Z,50.02
2023-05-10T18:34:17.065Z,50.15
2023-05-10T18:37:29.731Z,50.62
2023-05-10T18:40:42.095Z,51.09
2023-05-10T18:43:54.795Z,51.28
2023-05-10T18:47:07.202Z,51.77
2023-05-10T18:50:19.952Z,51.96
2023-05-10T18:53:32.638Z,52.17
2023-05-10T18:56:45.421Z,52.27
2023-05-10T18:59:57.980Z,52.07
2023-05-10T19:03:10.771Z,51.83
2023-05-10T19:06:23.185Z,51.94
2023-05-10T19:09:35.887Z,52.29
2023-05-10T19:12:48.256Z,51.95
2023-05-10T19:16:06.166Z,52.25
2023-05-10T19:19:20.645Z,51.60
2023-05-10T19:22:47.237Z,51.90
2023-05-10T19:26:06.359Z,51.85
2023-05-10T19:29:19.878Z,51.88
2023-05-10T19:32:32.276Z,52.04
2023-05-10T19:35:45.288Z,51.88
2023-05-10T19:38:57.760Z,52.16
2023-05-10T19:42:10.377Z,52.26
2023-05-10T19:45:22.840Z,52.15
2023-05-10T19:48:35.536Z,52.14
2023-05-10T19:51:47.908Z,52.51
2023-05-10T19:55:00.613Z,52.24
2023-05-10T19:58:13.343Z,52.31
2023-05-10T20:01:26.073Z,52.31
2023-05-10T20:04:38.824Z,52.59
2023-05-10T20:07:53.453Z,52.80
2023-05-10T20:11:06.065Z,52.40
2023-05-10T20:14:18.503Z,53.06
2023-05-10T20:17:31.305Z,52.76
2023-05-10T20:20:44.135Z,53.24
2023-05-10T20:23:56.859Z,53.18
2023-05-10T20:27:09.267Z,53.78
2023-05-10T20:30:22.210Z,53.66
2023-05-10T20:33:34.585Z,53.81
2023-05-10T20:36:47.259Z,54.21
2023-05-10T20:39:59.876Z,54.34
2023-05-10T20:43:15.123Z,54.53
2023-05-10T20:46:27.597Z,55.00
2023-05-10T20:49:40.669Z,55.23
2023-05-10T20:52:53.031Z,55.46
2023-05-10T20:56:05.864Z,55.46
2023-05-10T20:59:18.707Z,55.32
2023-05-10T21:02:31.413Z,55.49
2023-05-10T21:05:43.833Z,55.93
2023-05-10T21:08:56.496Z,56.19
2023-05-10T21:12:09.269Z,56.13
2023-05-10T21:15:25.640Z,56.63
2023-05-10T21:18:38.054Z,57.64
2023-05-10T21:21:50.752Z,57.82
2023-05-10T21:25:03.148Z,58.70
2023-05-10T21:28:15.904Z,58.90
2023-05-10T21:31:28.296Z,59.68
2023-05-10T21:34:40.969Z,60.26
2023-05-10T21:37:53.412Z,61.82
2023-05-10T21:41:09.159Z,63.48
2023-05-10T21:44:21.502Z,64.74
2023-05-10T21:47:34.337Z,65.63
2023-05-10T21:50:47.924Z,66.41
2023-05-10T21:54:00.594Z,67.08
2023-05-10T21:57:12.961Z,67.50
2023-05-10T22:00:25.592Z,67.95
2023-05-10T22:03:38.213Z,67.79
2023-05-10T22:06:50.554Z,68.15
2023-05-10T22:10:03.213Z,69.04
2023-05-10T22:13:15.926Z,69.82
2023-05-10T22:16:29.048Z,69.69
2023-05-10T22:19:41.538Z,69.87
2023-05-10T22:22:55.119Z,69.92
2023-05-10T22:26:07.476Z,70.06
2023-05-10T22:29:20.106Z,69.11
2023-05-10T22:32:33.059Z,68.87
2023-05-10T22:35:45.755Z,67.23
2023-05-10T22:38:58.237Z,66.55
2023-05-10T22:42:10.944Z,66.04
2023-05-10T22:45:23.363Z,65.64
2023-05-10T22:48:36.070Z,65.21
2023-05-10T22:51:48.429Z,63.91
2023-05-10T22:55:01.145Z,63.33
2023-05-10T22:58:13.505Z,63.09
2023-05-10T23:01:26.177Z,63.55
2023-05-10T23:04:38.574Z,62.92
2023-05-10T23:07:53.422Z,62.73
2023-05-10T23:11:05.802Z,61.88
2023-05-10T23:14:18.493Z,62.44
2023-05-10T23:17:30.899Z,62.08
2023-05-10T23:20:43.593Z,62.22
2023-05-10T23:23:56.033Z,62.51
2023-05-10T23:27:08.746Z,62.71
2023-05-10T23:30:21.208Z,62.95
2023-05-10T23:33:33.913Z,63.32
2023-05-10T23:36:46.310Z,63.04
2023-05-10T23:39:59.136Z,63.09
2023-05-10T23:43:11.525Z,64.00
2023-05-10T23:46:24.364Z,63.94
2023-05-10T23:49:36.939Z,64.23
2023-05-10T23:52:49.602Z,63.30
2023-05-10T23:56:07.828Z,64.40
2023-05-10T23:59:20.678Z,64.58
